createdAt,value
2023-03-10T00:00:41.048Z,66.90
2023-03-10T00:03:09.047Z,66.94
2023-03-10T00:05:39.298Z,66.55
2023-03-10T00:08:07.737Z,66.76
2023-03-10T00:10:35.546Z,66.63
2023-03-10T00:13:03.341Z,66.72
2023-03-10T00:15:31.691Z,67.26
2023-03-10T00:17:59.690Z,66.90
2023-03-10T00:20:27.578Z,66.41
2023-03-10T00:22:56.720Z,66.69
2023-03-10T00:25:24.538Z,66.72
2023-03-10T00:27:52.757Z,66.92
2023-03-10T00:30:20.781Z,67.30
2023-03-10T00:32:50.257Z,66.62
2023-03-10T00:35:18.329Z,67.07
2023-03-10T00:37:46.117Z,67.01
2023-03-10T00:40:16.386Z,66.80
2023-03-10T00:42:44.808Z,66.75
2023-03-10T00:45:12.735Z,67.04
2023-03-10T00:47:40.766Z,66.82
2023-03-10T00:50:09.923Z,66.77
2023-03-10T00:52:37.804Z,67.33
2023-03-10T00:55:06.249Z,66.89
2023-03-10T00:57:36.891Z,66.72
2023-03-10T01:00:06.445Z,67.03
2023-03-10T01:02:34.179Z,67.16
2023-03-10T01:05:02.008Z,66.85
2023-03-10T01:07:29.738Z,66.82
2023-03-10T01:09:57.627Z,67.48
2023-03-10T01:12:25.417Z,66.99
2023-03-10T01:14:54.638Z,67.14
2023-03-10T01:17:22.384Z,67.35
2023-03-10T01:19:50.246Z,67.54
2023-03-10T01:22:18.125Z,67.42
2023-03-10T01:24:45.884Z,67.06
2023-03-10T01:27:13.774Z,67.42
2023-03-10T01:29:41.581Z,67.15
2023-03-10T01:32:10.880Z,67.33
2023-03-10T01:34:39.415Z,67.10
2023-03-10T01:37:07.253Z,67.21
2023-03-10T01:39:35.125Z,67.63
2023-03-10T01:42:03.018Z,67.37
2023-03-10T01:44:30.772Z,67.39
2023-03-10T01:46:59.619Z,67.16
2023-03-10T01:49:34.683Z,67.06
2023-03-10T01:52:06.233Z,66.98
2023-03-10T01:54:42.210Z,67.70
2023-03-10T01:57:10.709Z,66.94
2023-03-10T01:59:38.594Z,67.00
2023-03-10T02:02:06.620Z,67.53
2023-03-10T02:04:42.663Z,67.18
2023-03-10T02:07:11.777Z,67.11
2023-03-10T02:09:43.474Z,67.33
2023-03-10T02:12:12.252Z,67.63
2023-03-10T02:14:40.877Z,67.36
2023-03-10T02:17:11.295Z,67.24
2023-03-10T02:20:00.380Z,67.58
2023-03-10T02:22:28.480Z,67.63
2023-03-10T02:25:02.609Z,67.82
2023-03-10T02:27:35.285Z,67.94
2023-03-10T02:30:07.037Z,67.88
2023-03-10T02:32:38.468Z,67.63
2023-03-10T02:35:06.993Z,68.08
2023-03-10T02:37:36.507Z,67.55
2023-03-10T02:40:06.020Z,67.83
2023-03-10T02:42:37.509Z,67.86
2023-03-10T02:45:05.870Z,67.57
2023-03-10T02:47:33.652Z,68.11
2023-03-10T02:50:02.538Z,67.55
2023-03-10T02:52:37.579Z,67.57
2023-03-10T02:55:06.060Z,68.18
2023-03-10T02:57:35.181Z,67.63
2023-03-10T03:00:05.288Z,68.13
2023-03-10T03:02:33.689Z,68.04
2023-03-10T03:05:01.740Z,68.15
2023-03-10T03:07:29.672Z,68.10
2023-03-10T03:09:57.739Z,67.67
2023-03-10T03:12:25.625Z,67.59
2023-03-10T03:14:55.107Z,67.96
2023-03-10T03:17:22.910Z,68.32
2023-03-10T03:19:50.656Z,67.85
2023-03-10T03:22:18.434Z,68.06
2023-03-10T03:24:46.345Z,68.11
2023-03-10T03:27:14.333Z,68.12
2023-03-10T03:29:42.120Z,68.09
2023-03-10T03:32:11.522Z,68.17
2023-03-10T03:34:39.494Z,68.39
2023-03-10T03:37:07.273Z,68.05
2023-03-10T03:39:35.204Z,67.93
2023-03-10T03:42:03.082Z,68.17
2023-03-10T03:44:30.987Z,68.62
2023-03-10T03:46:58.748Z,68.64
2023-03-10T03:49:28.848Z,68.36
2023-03-10T03:51:56.615Z,68.00
2023-03-10T03:54:24.492Z,68.21
2023-03-10T03:56:52.301Z,68.37
2023-03-10T03:59:20.339Z,68.31
2023-03-10T04:01:48.323Z,68.58
2023-03-10T04:04:16.199Z,68.27
2023-03-10T04:06:45.389Z,68.72
2023-03-10T04:09:13.759Z,68.55
2023-03-10T04:11:41.559Z,68.90
2023-03-10T04:14:09.542Z,68.18
2023-03-10T04:16:37.363Z,68.40
2023-03-10T04:19:07.528Z,68.61
2023-03-10T04:21:35.865Z,68.71
2023-03-10T04:24:06.057Z,68.69
2023-03-10T04:26:34.430Z,68.46
2023-03-10T04:29:02.425Z,68.61
2023-03-10T04:31:30.700Z,68.56
2023-03-10T04:33:58.657Z,68.49
2023-03-10T04:36:26.390Z,68.78
2023-03-10T04:38:54.335Z,68.69
2023-03-10T04:41:23.565Z,68.51
2023-03-10T04:43:51.902Z,69.01
2023-03-10T04:46:19.844Z,68.81
2023-03-10T04:48:47.826Z,68.81
2023-03-10T04:51:15.573Z,68.72
2023-03-10T04:53:43.363Z,68.52
2023-03-10T04:56:12.512Z,68.75
2023-03-10T04:58:41.816Z,68.95
2023-03-10T05:01:10.804Z,68.88
2023-03-10T05:03:38.734Z,68.66
2023-03-10T05:06:12.428Z,68.66
2023-03-10T05:08:40.307Z,68.87
2023-03-10T05:11:09.131Z,69.11
2023-03-10T05:13:36.951Z,68.99
2023-03-10T05:16:13.776Z,68.97
2023-03-10T05:18:42.903Z,68.72
2023-03-10T05:21:10.900Z,69.07
2023-03-10T05:23:39.079Z,69.28
2023-03-10T05:26:07.910Z,69.01
2023-03-10T05:28:36.041Z,69.07
2023-03-10T05:31:09.657Z,68.91
2023-03-10T05:33:37.422Z,69.18
2023-03-10T05:36:07.779Z,69.27
2023-03-10T05:38:36.561Z,69.08
2023-03-10T05:41:08.160Z,69.16
2023-03-10T05:43:36.422Z,69.30
2023-03-10T05:46:06.097Z,69.43
2023-03-10T05:48:33.969Z,69.46
2023-03-10T05:51:03.068Z,69.39
2023-03-10T05:53:32.465Z,69.84
2023-03-10T05:56:00.714Z,69.59
2023-03-10T05:58:28.722Z,69.33
2023-03-10T06:00:56.467Z,69.63
2023-03-10T06:03:25.782Z,69.04
2023-03-10T06:05:53.757Z,69.44
2023-03-10T06:08:21.538Z,69.69
2023-03-10T06:10:49.358Z,69.69
2023-03-10T06:13:20.103Z,69.41
2023-03-10T06:15:50.947Z,69.53
2023-03-10T06:18:19.391Z,69.49
2023-03-10T06:20:49.496Z,69.33
2023-03-10T06:23:18.168Z,69.63
2023-03-10T06:25:46.092Z,70.02
2023-03-10T06:28:13.914Z,69.90
2023-03-10T06:30:41.717Z,69.87
2023-03-10T06:33:09.578Z,69.93
2023-03-10T06:35:37.318Z,69.94
2023-03-10T06:38:06.410Z,69.72
2023-03-10T06:40:34.502Z,70.06
2023-03-10T06:43:02.253Z,70.09
2023-03-10T06:45:30.159Z,70.12
2023-03-10T06:47:58.285Z,70.07
2023-03-10T06:50:26.107Z,70.25
2023-03-10T06:52:53.881Z,70.28
2023-03-10T06:55:23.061Z,70.38
2023-03-10T06:57:50.875Z,70.38
2023-03-10T07:00:19.878Z,70.33
2023-03-10T07:02:47.654Z,70.37
2023-03-10T07:05:15.682Z,70.72
2023-03-10T07:07:43.584Z,70.44
2023-03-10T07:10:12.640Z,70.28
2023-03-10T07:12:41.807Z,70.52
2023-03-10T07:15:10.796Z,70.68
2023-03-10T07:17:38.774Z,70.67
2023-03-10T07:20:07.972Z,70.52
2023-03-10T07:22:35.909Z,70.71
2023-03-10T07:25:05.033Z,70.83
2023-03-10T07:27:32.843Z,70.72
2023-03-10T07:30:02.077Z,70.69
2023-03-10T07:32:29.997Z,70.81
2023-03-10T07:34:57.963Z,70.73
2023-03-10T07:37:25.882Z,70.81
2023-03-10T07:39:55.021Z,70.85
2023-03-10T07:42:22.904Z,70.94
2023-03-10T07:44:50.743Z,70.79
2023-03-10T07:47:20.240Z,70.95
2023-03-10T07:49:48.248Z,71.00
2023-03-10T07:52:16.351Z,71.04
2023-03-10T07:54:45.228Z,70.86
2023-03-10T07:57:13.803Z,71.12
2023-03-10T07:59:42.271Z,71.12
2023-03-10T08:02:13.102Z,71.24
2023-03-10T08:04:43.114Z,71.21
2023-03-10T08:07:10.983Z,71.51
2023-03-10T08:09:39.052Z,71.42
2023-03-10T08:12:08.108Z,71.50
2023-03-10T08:14:36.505Z,71.73
2023-03-10T08:17:04.410Z,71.96
2023-03-10T08:19:32.339Z,71.83
2023-03-10T08:22:03.602Z,72.08
2023-03-10T08:24:31.556Z,72.14
2023-03-10T08:26:59.429Z,72.01
2023-03-10T08:29:27.221Z,72.20
2023-03-10T08:31:55.025Z,72.68
2023-03-10T08:34:23.346Z,72.94
2023-03-10T08:36:51.388Z,73.00
2023-03-10T08:39:20.634Z,72.97
2023-03-10T08:41:49.791Z,73.27
2023-03-10T08:44:19.329Z,73.16
2023-03-10T08:46:49.151Z,72.90
2023-03-10T08:49:18.695Z,73.03
2023-03-10T08:51:46.774Z,73.27
2023-03-10T08:54:17.331Z,73.25
2023-03-10T08:56:46.459Z,73.15
2023-03-10T08:59:14.292Z,72.97
2023-03-10T09:01:42.142Z,72.63
2023-03-10T09:04:11.382Z,72.88
2023-03-10T09:06:39.486Z,72.72
2023-03-10T09:09:10.082Z,72.51
2023-03-10T09:11:40.511Z,72.60
2023-03-10T09:14:11.186Z,72.35
2023-03-10T09:16:40.333Z,72.92
2023-03-10T09:19:08.486Z,72.87
2023-03-10T09:21:36.290Z,72.91
2023-03-10T09:24:04.881Z,72.79
2023-03-10T09:26:34.345Z,72.83
2023-03-10T09:29:02.596Z,73.07
2023-03-10T09:31:34.350Z,73.28
2023-03-10T09:34:03.232Z,73.01
2023-03-10T09:36:32.560Z,72.83
2023-03-10T09:39:01.340Z,73.18
2023-03-10T09:42:01.795Z,73.00
2023-03-10T09:44:40.079Z,73.12
2023-03-10T09:47:24.012Z,73.45
2023-03-10T09:50:03.993Z,73.37
2023-03-10T09:52:44.079Z,73.38
2023-03-10T09:55:21.000Z,72.99
2023-03-10T09:57:51.650Z,73.11
2023-03-10T10:00:23.886Z,72.86
2023-03-10T10:03:01.178Z,73.41
2023-03-10T10:05:33.666Z,73.00
2023-03-10T10:08:07.080Z,72.87
2023-03-10T10:10:38.427Z,73.00
2023-03-10T10:13:13.646Z,73.28
2023-03-10T10:15:45.502Z,72.65
2023-03-10T10:18:24.990Z,72.74
2023-03-10T10:20:59.135Z,72.60
2023-03-10T10:23:33.954Z,72.77
2023-03-10T10:26:09.805Z,72.62
2023-03-10T10:28:43.295Z,72.18
2023-03-10T10:31:13.973Z,72.12
2023-03-10T10:33:58.193Z,72.33
2023-03-10T10:36:28.805Z,72.87
2023-03-10T10:38:59.074Z,72.63
2023-03-10T10:41:30.439Z,72.43
2023-03-10T10:44:01.782Z,72.82
2023-03-10T10:46:32.882Z,72.85
2023-03-10T10:49:09.198Z,72.76
2023-03-10T10:51:38.960Z,72.40
2023-03-10T10:54:24.115Z,72.52
2023-03-10T10:56:57.077Z,72.50
2023-03-10T10:59:30.011Z,72.43
2023-03-10T11:01:59.765Z,71.88
2023-03-10T11:04:31.248Z,72.53
2023-03-10T11:07:13.803Z,71.87
2023-03-10T11:09:41.689Z,71.87
2023-03-10T11:12:20.158Z,72.03
2023-03-10T11:15:01.699Z,72.30
2023-03-10T11:17:34.339Z,72.63
2023-03-10T11:20:14.983Z,72.24
2023-03-10T11:22:47.118Z,72.73
2023-03-10T11:25:33.296Z,72.46
2023-03-10T11:28:13.709Z,72.35
2023-03-10T11:30:47.969Z,72.76
2023-03-10T11:33:26.156Z,72.25
2023-03-10T11:36:01.019Z,72.23
2023-03-10T11:38:38.456Z,72.15
2023-03-10T11:41:12.491Z,72.57
2023-03-10T11:43:50.885Z,72.24
2023-03-10T11:46:24.878Z,72.10
2023-03-10T11:49:00.616Z,72.51
2023-03-10T11:51:38.853Z,72.77
2023-03-10T11:54:16.092Z,72.88
2023-03-10T11:56:44.262Z,72.27
2023-03-10T11:59:18.037Z,72.33
2023-03-10T12:01:51.703Z,72.09
2023-03-10T12:04:25.063Z,71.92
2023-03-10T12:07:00.083Z,71.38
2023-03-10T12:09:42.313Z,71.40
2023-03-10T12:12:15.858Z,71.74
2023-03-10T12:14:44.877Z,71.50
2023-03-10T12:17:14.282Z,71.40
2023-03-10T12:20:12.127Z,71.43
2023-03-10T12:22:42.538Z,71.22
2023-03-10T12:25:43.977Z,71.10
2023-03-10T12:28:24.550Z,71.04
2023-03-10T12:30:56.517Z,70.92
2023-03-10T12:33:48.819Z,70.89
2023-03-10T12:36:24.579Z,70.27
2023-03-10T12:38:57.828Z,70.71
2023-03-10T12:41:44.477Z,70.63
2023-03-10T12:44:45.565Z,70.83
2023-03-10T12:47:22.778Z,70.78
2023-03-10T12:49:56.266Z,70.71
2023-03-10T12:52:32.545Z,70.55
2023-03-10T12:55:17.758Z,71.01
2023-03-10T12:57:55.089Z,71.05
2023-03-10T13:00:31.956Z,71.08
2023-03-10T13:03:05.724Z,71.20
2023-03-10T13:05:35.621Z,71.21
2023-03-10T13:08:13.220Z,71.05
2023-03-10T13:10:43.365Z,71.08
2023-03-10T13:13:17.865Z,70.83
2023-03-10T13:15:58.510Z,70.45
2023-03-10T13:18:26.322Z,70.66
2023-03-10T13:20:54.177Z,70.54
2023-03-10T13:23:24.184Z,70.43
2023-03-10T13:25:55.070Z,70.16
2023-03-10T13:28:23.051Z,70.40
2023-03-10T13:30:50.855Z,70.51
2023-03-10T13:33:25.321Z,70.34
2023-03-10T13:35:53.655Z,70.25
2023-03-10T13:38:24.708Z,70.15
2023-03-10T13:41:02.369Z,70.20
2023-03-10T13:43:38.296Z,69.91
2023-03-10T13:46:09.745Z,69.98
2023-03-10T13:48:38.529Z,69.89
2023-03-10T13:51:08.641Z,69.73
2023-03-10T13:53:36.555Z,69.72
2023-03-10T13:56:18.796Z,69.75
2023-03-10T13:58:48.529Z,69.75
2023-03-10T14:01:23.315Z,69.93
2023-03-10T14:03:53.947Z,69.74
2023-03-10T14:06:22.924Z,69.45
2023-03-10T14:08:51.490Z,69.43
2023-03-10T14:11:31.208Z,69.61
2023-03-10T14:14:00.302Z,69.79
2023-03-10T14:16:54.357Z,69.42
2023-03-10T14:19:51.301Z,69.70
2023-03-10T14:22:30.938Z,69.70
2023-03-10T14:25:01.109Z,69.51
2023-03-10T14:27:34.981Z,69.22
2023-03-10T14:30:12.074Z,69.30
2023-03-10T14:32:40.577Z,69.56
2023-03-10T14:35:12.725Z,69.54
2023-03-10T14:37:40.597Z,69.54
2023-03-10T14:40:10.820Z,70.02
2023-03-10T14:42:41.564Z,69.79
2023-03-10T14:45:22.144Z,70.17
2023-03-10T14:47:50.377Z,69.98
2023-03-10T14:50:20.120Z,70.12
2023-03-10T14:52:48.052Z,70.16
2023-03-10T14:55:16.557Z,70.79
2023-03-10T14:57:48.273Z,70.32
2023-03-10T15:00:19.350Z,70.56
2023-03-10T15:02:47.823Z,70.22
2023-03-10T15:05:17.027Z,70.66
2023-03-10T15:07:45.443Z,70.63
2023-03-10T15:10:13.910Z,70.53
2023-03-10T15:12:42.475Z,70.42
2023-03-10T15:15:16.684Z,70.07
2023-03-10T15:17:44.971Z,70.07
2023-03-10T15:20:17.528Z,69.84
2023-03-10T15:22:47.050Z,69.78
2023-03-10T15:25:17.657Z,69.53
2023-03-10T15:27:48.394Z,69.63
2023-03-10T15:30:21.335Z,69.16
2023-03-10T15:32:49.235Z,69.44
2023-03-10T15:35:17.968Z,69.05
2023-03-10T15:37:46.056Z,68.97
2023-03-10T15:40:17.650Z,68.69
2023-03-10T15:42:46.160Z,69.01
2023-03-10T15:45:14.941Z,69.48
2023-03-10T15:47:44.236Z,68.66
2023-03-10T15:50:13.608Z,68.65
2023-03-10T15:52:46.859Z,68.59
2023-03-10T15:55:16.302Z,68.51
2023-03-10T15:57:44.402Z,68.62
2023-03-10T16:00:13.679Z,68.21
2023-03-10T16:02:41.502Z,68.40
2023-03-10T16:05:11.687Z,68.16
2023-03-10T16:07:39.704Z,68.26
2023-03-10T16:10:09.976Z,68.15
2023-03-10T16:12:37.772Z,68.04
2023-03-10T16:15:06.138Z,68.03
2023-03-10T16:17:33.981Z,68.01
2023-03-10T16:20:06.570Z,67.97
2023-03-10T16:22:40.357Z,67.90
2023-03-10T16:25:10.169Z,67.81
2023-03-10T16:27:37.985Z,67.74
2023-03-10T16:30:06.831Z,67.66
2023-03-10T16:32:34.867Z,67.70
2023-03-10T16:35:02.853Z,67.67
2023-03-10T16:37:30.928Z,67.64
2023-03-10T16:40:00.162Z,67.68
2023-03-10T16:42:28.066Z,67.49
2023-03-10T16:44:57.111Z,67.59
2023-03-10T16:47:25.131Z,67.47
2023-03-10T16:49:53.097Z,67.66
2023-03-10T16:52:20.942Z,67.08
2023-03-10T16:54:48.873Z,67.48
2023-03-10T16:57:18.114Z,67.59
2023-03-10T16:59:46.575Z,67.41
2023-03-10T17:02:16.557Z,67.30
2023-03-10T17:04:45.307Z,67.34
2023-03-10T17:07:14.216Z,67.42
2023-03-10T17:09:42.085Z,67.28
2023-03-10T17:12:10.224Z,67.13
2023-03-10T17:14:39.374Z,67.41
2023-03-10T17:17:08.049Z,66.94
2023-03-10T17:19:37.638Z,67.10
2023-03-10T17:22:05.465Z,67.07
2023-03-10T17:24:33.261Z,67.21
2023-03-10T17:27:01.122Z,67.21
2023-03-10T17:29:28.910Z,67.21
2023-03-10T17:31:58.068Z,66.92
2023-03-10T17:34:27.163Z,67.03
2023-03-10T17:36:55.003Z,67.06
2023-03-10T17:39:23.997Z,67.17
2023-03-10T17:41:51.731Z,67.18
2023-03-10T17:44:19.650Z,67.26
2023-03-10T17:46:47.847Z,67.04
2023-03-10T17:49:18.073Z,66.97
2023-03-10T17:51:47.290Z,67.01
2023-03-10T17:54:17.049Z,67.04
2023-03-10T17:56:44.924Z,66.98
2023-03-10T17:59:14.341Z,67.07
2023-03-10T18:01:44.739Z,67.00
2023-03-10T18:04:13.840Z,66.94
2023-03-10T18:06:43.510Z,67.12
2023-03-10T18:09:14.309Z,67.06
2023-03-10T18:11:42.726Z,66.98
2023-03-10T18:14:10.918Z,66.98
2023-03-10T18:16:40.523Z,67.36
2023-03-10T18:19:10.892Z,66.74
2023-03-10T18:21:39.448Z,67.08
2023-03-10T18:24:09.247Z,67.03
2023-03-10T18:26:38.081Z,66.90
2023-03-10T18:29:06.221Z,67.21
2023-03-10T18:31:35.487Z,66.81
2023-03-10T18:34:04.286Z,67.02
2023-03-10T18:36:33.071Z,67.14
2023-03-10T18:39:02.423Z,67.04
2023-03-10T18:41:32.738Z,67.10
2023-03-10T18:44:01.321Z,66.98
2023-03-10T18:46:29.422Z,67.18
2023-03-10T18:48:57.252Z,66.91
2023-03-10T18:51:25.905Z,67.03
2023-03-10T18:53:54.293Z,67.20
2023-03-10T18:56:23.797Z,67.11
2023-03-10T18:58:53.065Z,67.07
2023-03-10T19:01:21.078Z,67.16
2023-03-10T19:03:48.964Z,67.13
2023-03-10T19:06:16.951Z,66.91
2023-03-10T19:08:44.785Z,66.72
2023-03-10T19:11:13.013Z,67.10
2023-03-10T19:13:44.106Z,67.08
2023-03-10T19:16:13.740Z,67.37
2023-03-10T19:18:41.615Z,67.08
2023-03-10T19:21:10.037Z,67.50
2023-03-10T19:23:37.937Z,67.12
2023-03-10T19:26:05.995Z,66.99
2023-03-10T19:28:34.073Z,67.02
2023-03-10T19:31:01.938Z,67.18
2023-03-10T19:33:31.128Z,67.13
2023-03-10T19:36:03.011Z,66.93
2023-03-10T19:38:30.954Z,67.17
2023-03-10T19:40:58.872Z,67.17
2023-03-10T19:43:26.762Z,67.19
2023-03-10T19:46:00.928Z,67.02
2023-03-10T19:48:28.892Z,67.05
2023-03-10T19:50:59.813Z,67.16
2023-03-10T19:53:29.861Z,67.10
2023-03-10T19:56:00.308Z,67.16
2023-03-10T19:58:28.489Z,67.13
2023-03-10T20:00:58.240Z,66.92
2023-03-10T20:03:27.529Z,67.25
2023-03-10T20:05:56.062Z,67.18
2023-03-10T20:08:26.228Z,67.08
2023-03-10T20:10:55.498Z,67.04
2023-03-10T20:13:23.457Z,66.87
2023-03-10T20:15:51.223Z,67.27
2023-03-10T20:18:21.182Z,66.88
2023-03-10T20:20:49.046Z,67.03
2023-03-10T20:23:17.336Z,66.97
2023-03-10T20:25:46.769Z,66.93
2023-03-10T20:28:15.390Z,67.51
2023-03-10T20:30:43.234Z,67.17
2023-03-10T20:33:11.290Z,66.96
2023-03-10T20:35:39.114Z,67.25
2023-03-10T20:38:07.054Z,66.79
2023-03-10T20:40:36.676Z,66.83
2023-03-10T20:43:08.395Z,67.23
2023-03-10T20:45:36.343Z,67.14
2023-03-10T20:48:07.687Z,66.91
2023-03-10T20:50:36.018Z,67.19
2023-03-10T20:53:04.440Z,66.77
2023-03-10T20:55:33.116Z,67.02
2023-03-10T20:58:01.866Z,66.95
2023-03-10T21:00:31.471Z,67.18
2023-03-10T21:03:00.832Z,66.46
2023-03-10T21:05:28.965Z,67.00
2023-03-10T21:07:58.064Z,67.23
2023-03-10T21:10:26.684Z,66.30
2023-03-10T21:12:54.474Z,66.99
2023-03-10T21:15:23.767Z,66.50
2023-03-10T21:17:53.050Z,66.83
2023-03-10T21:20:23.638Z,66.59
2023-03-10T21:22:52.077Z,66.68
2023-03-10T21:25:22.109Z,66.31
2023-03-10T21:27:52.669Z,67.12
2023-03-10T21:30:21.517Z,67.00
2023-03-10T21:32:49.347Z,66.57
2023-03-10T21:35:18.792Z,66.81
2023-03-10T21:37:48.448Z,67.13
2023-03-10T21:40:19.734Z,67.04
2023-03-10T21:42:47.897Z,66.50
2023-03-10T21:45:18.814Z,66.53
2023-03-10T21:47:46.735Z,66.32
2023-03-10T21:50:15.558Z,66.24
2023-03-10T21:52:45.885Z,66.74
2023-03-10T21:55:18.439Z,66.66
2023-03-10T21:57:46.497Z,66.51
2023-03-10T22:00:15.180Z,66.36
2023-03-10T22:02:43.310Z,66.85
2023-03-10T22:05:14.615Z,66.77
2023-03-10T22:07:42.468Z,66.59
2023-03-10T22:10:13.596Z,67.01
2023-03-10T22:12:41.803Z,67.15
2023-03-10T22:15:15.160Z,66.95
2023-03-10T22:17:43.184Z,66.57
2023-03-10T22:20:14.984Z,66.76
2023-03-10T22:22:42.712Z,66.52
2023-03-10T22:25:12.238Z,66.54
2023-03-10T22:27:40.141Z,66.64
2023-03-10T22:30:09.194Z,66.63
2023-03-10T22:32:37.172Z,66.65
2023-03-10T22:35:05.398Z,66.70
2023-03-10T22:37:33.241Z,66.64
2023-03-10T22:40:01.162Z,66.13
2023-03-10T22:42:30.292Z,66.68
2023-03-10T22:44:58.281Z,66.81
2023-03-10T22:47:26.172Z,66.78
2023-03-10T22:49:54.028Z,66.61
2023-03-10T22:52:21.866Z,66.49
2023-03-10T22:54:49.659Z,66.23
2023-03-10T22:57:17.463Z,66.40
2023-03-10T22:59:46.639Z,66.49
2023-03-10T23:02:14.427Z,66.70
2023-03-10T23:04:42.988Z,66.73
2023-03-10T23:07:10.883Z,66.71
2023-03-10T23:09:38.694Z,66.92
2023-03-10T23:12:06.866Z,66.58
2023-03-10T23:14:34.648Z,66.37
2023-03-10T23:17:04.103Z,66.48
2023-03-10T23:19:33.730Z,66.48
2023-03-10T23:22:01.612Z,66.68
2023-03-10T23:24:29.368Z,66.95
2023-03-10T23:26:57.166Z,66.69
2023-03-10T23:29:24.982Z,66.18
2023-03-10T23:31:52.802Z,66.82
2023-03-10T23:34:22.051Z,66.52
2023-03-10T23:36:50.033Z,66.72
2023-03-10T23:39:17.892Z,66.83
2023-03-10T23:41:45.677Z,66.74
2023-03-10T23:44:13.600Z,66.56
2023-03-10T23:46:41.485Z,66.58
2023-03-10T23:49:09.278Z,66.55
2023-03-10T23:51:38.474Z,66.31
2023-03-10T23:54:06.542Z,66.96
2023-03-10T23:56:34.394Z,67.00
2023-03-10T23:59:02.163Z,66.54
